Time;durP1;ratioP1;P1;durP2;ratioP2;P2;SDS_P1;SDS_P2;PMS_P1;PMS_P2;Temp;Humidity;BMP_temperature;BMP_pressure;BME280_temperature;BME280_humidity;BME280_pressure;Samples;Min_cycle;Max_cycle;Signal;HPM_P1;HPM_P2
2022/12/07 00:01:30;;;;;;;;;;;;;;;;;;5154294;27;2057;-41
2022/12/07 00:04:05;;;;;;;;;;;;;;;;;;5154055;27;2013;-41
2022/12/07 00:06:34;;;;;;;;;;;;;;;;;;5152744;27;1889;-40
2022/12/07 00:09:01;;;;;;;;;;;;;;;;;;5135624;27;2088;-40
2022/12/07 00:11:28;;;;;;;;;;;;;;;;;;5154061;27;2274;-41
2022/12/07 00:13:57;;;;;;;;;;;;;;;;;;5153941;27;2128;-41
2022/12/07 00:16:26;;;;;;;;;;;;;;;;;;5153739;27;2059;-42
2022/12/07 00:18:53;;;;;;;;;;;;;;;;;;5153737;27;1958;-41
2022/12/07 00:21:21;;;;;;;;;;;;;;;;;;5169889;27;1886;-40
2022/12/07 00:23:49;;;;;;;;;;;;;;;;;;5174407;27;2006;-40
2022/12/07 00:26:18;;;;;;;;;;;;;;;;;;5174569;27;1743;-41
2022/12/07 00:28:46;;;;;;;;;;;;;;;;;;5155610;27;2062;-40
2022/12/07 00:31:14;;;;;;;;;;;;;;;;;;5174132;27;1726;-42
2022/12/07 00:33:41;;;;;;;;;;;;;;;;;;5174152;27;1969;-41
2022/12/07 00:36:10;;;;;;;;;;;;;;;;;;5174351;27;1391;-40
2022/12/07 00:38:38;;;;;;;;;;;;;;;;;;5174383;27;1840;-39
2022/12/07 00:41:07;;;;;;;;;;;;;;;;;;5173730;27;1756;-41
2022/12/07 00:43:34;;;;;;;;;;;;;;;;;;5174071;27;1891;-40
2022/12/07 00:46:02;;;;;;;;;;;;;;;;;;5173940;27;1922;-40
2022/12/07 00:48:29;;;;;;;;;;;;;;;;;;5174317;27;1871;-41
2022/12/07 00:50:57;;;;;;;;;;;;;;;;;;5174304;27;1915;-42
2022/12/07 00:53:24;;;;;;;;;;;;;;;;;;5173466;27;1909;-40
2022/12/07 00:55:52;;;;;;;;;;;;;;;;;;5173720;27;1752;-41
2022/12/07 00:58:19;;;;;;;;;;;;;;;;;;5173888;27;2461;-41
2022/12/07 01:00:46;;;;;;;;;;;;;;;;;;5173790;27;2291;-40
2022/12/07 01:03:14;;;;;;;;;;;;;;;;;;5173887;27;1489;-39
2022/12/07 01:05:48;;;;;;;;;;;;;;;;;;5173679;27;2075;-40
2022/12/07 01:08:16;;;;;;;;;;;;;;;;;;5173823;27;1921;-40
2022/12/07 01:10:43;;;;;;;;;;;;;;;;;;5173487;27;1880;-40
2022/12/07 01:13:10;;;;;;;;;;;;;;;;;;5173693;27;2278;-40
2022/12/07 01:15:41;;;;;;;;;;;;;;;;;;5173843;27;1938;-40
2022/12/07 01:18:08;;;;;;;;;;;;;;;;;;5172919;27;1944;-40
2022/12/07 01:20:35;;;;;;;;;;;;;;;;;;5163406;27;1802;-38
2022/12/07 01:23:03;;;;;;;;;;;;;;;;;;5152862;27;2103;-40
2022/12/07 01:25:30;;;;;;;;;;;;;;;;;;5134577;27;1517;-40
2022/12/07 01:27:57;;;;;;;;;;;;;;;;;;5152736;27;1515;-40
2022/12/07 01:30:24;;;;;;;;;;;;;;;;;;5152565;27;2001;-39
2022/12/07 01:32:51;;;;;;;;;;;;;;;;;;5152592;27;2073;-39
2022/12/07 01:35:18;;;;;;;;;;;;;;;;;;5152380;27;2348;-41
2022/12/07 01:37:45;;;;;;;;;;;;;;;;;;5152561;27;1660;-40
2022/12/07 01:40:12;;;;;;;;;;;;;;;;;;5152710;27;1918;-40
2022/12/07 01:42:40;;;;;;;;;;;;;;;;;;5152416;27;1975;-40
2022/12/07 01:45:18;;;;;;;;;;;;;;;;;;5152462;27;1867;-39
2022/12/07 01:48:05;;;;;;;;;;;;;;;;;;5133908;27;2359;-39
2022/12/07 01:50:32;;;;;;;;;;;;;;;;;;5152649;27;1629;-41
2022/12/07 01:53:01;;;;;;;;;;;;;;;;;;5166148;27;2148;-41
2022/12/07 01:55:28;;;;;;;;;;;;;;;;;;5173304;27;1970;-41
2022/12/07 01:57:56;;;;;;;;;;;;;;;;;;5173478;27;1803;-41
2022/12/07 02:00:23;;;;;;;;;;;;;;;;;;5154347;27;1970;-39
2022/12/07 02:02:56;;;;;;;;;;;;;;;;;;5173295;27;1649;-40
2022/12/07 02:05:24;;;;;;;;;;;;;;;;;;5172855;27;2010;-41
2022/12/07 02:07:53;;;;;;;;;;;;;;;;;;5173266;27;1721;-40
2022/12/07 02:10:24;;;;;;;;;;;;;;;;;;5173108;27;1457;-41
2022/12/07 02:12:54;;;;;;;;;;;;;;;;;;5172814;27;1911;-39
2022/12/07 02:15:22;;;;;;;;;;;;;;;;;;5173080;27;1599;-40
2022/12/07 02:17:49;;;;;;;;;;;;;;;;;;5154516;27;2295;-40
2022/12/07 02:20:21;;;;;;;;;;;;;;;;;;5165789;27;2034;-40
2022/12/07 02:22:54;;;;;;;;;;;;;;;;;;5152321;27;1922;-42
2022/12/07 02:25:36;;;;;;;;;;;;;;;;;;5151941;27;1714;-41
2022/12/07 02:28:09;;;;;;;;;;;;;;;;;;5152455;27;1275;-40
2022/12/07 02:30:40;;;;;;;;;;;;;;;;;;5154461;27;1612;-40
2022/12/07 02:33:14;;;;;;;;;;;;;;;;;;5155971;27;1906;-42
2022/12/07 02:35:41;;;;;;;;;;;;;;;;;;5137268;27;1795;-40
2022/12/07 02:38:13;;;;;;;;;;;;;;;;;;5137144;27;1749;-42
2022/12/07 02:40:43;;;;;;;;;;;;;;;;;;5155598;27;2069;-40
2022/12/07 02:43:13;;;;;;;;;;;;;;;;;;5155610;27;2005;-41
2022/12/07 02:45:43;;;;;;;;;;;;;;;;;;5155531;27;1868;-40
2022/12/07 02:48:11;;;;;;;;;;;;;;;;;;5155548;27;1958;-41
2022/12/07 02:50:39;;;;;;;;;;;;;;;;;;5155480;27;1866;-41
2022/12/07 02:53:06;;;;;;;;;;;;;;;;;;5155611;27;2286;-40
2022/12/07 02:55:39;;;;;;;;;;;;;;;;;;5155152;27;1911;-41
2022/12/07 02:58:18;;;;;;;;;;;;;;;;;;5155563;27;1927;-41
2022/12/07 03:01:08;;;;;;;;;;;;;;;;;;5155171;27;1658;-39
2022/12/07 03:03:37;;;;;;;;;;;;;;;;;;5138653;27;2000;-40
2022/12/07 03:06:16;;;;;;;;;;;;;;;;;;5154982;27;1713;-41
2022/12/07 03:08:48;;;;;;;;;;;;;;;;;;5154994;27;1600;-40
2022/12/07 03:11:20;;;;;;;;;;;;;;;;;;5154981;27;1638;-40
2022/12/07 03:14:10;;;;;;;;;;;;;;;;;;5154793;27;2159;-41
2022/12/07 03:16:41;;;;;;;;;;;;;;;;;;5154759;27;2219;-39
2022/12/07 03:19:15;;;;;;;;;;;;;;;;;;5155255;27;1866;-39
2022/12/07 03:21:44;;;;;;;;;;;;;;;;;;5154596;27;1959;-42
2022/12/07 03:24:18;;;;;;;;;;;;;;;;;;5154877;27;1977;-41
2022/12/07 03:26:51;;;;;;;;;;;;;;;;;;5154715;27;1973;-40
2022/12/07 03:29:27;;;;;;;;;;;;;;;;;;5154775;27;1747;-40
2022/12/07 03:31:59;;;;;;;;;;;;;;;;;;5135869;27;2299;-41
2022/12/07 03:34:39;;;;;;;;;;;;;;;;;;5154318;27;1915;-40
2022/12/07 03:37:16;;;;;;;;;;;;;;;;;;5154559;27;1952;-41
2022/12/07 03:39:52;;;;;;;;;;;;;;;;;;5154472;27;1661;-41
2022/12/07 03:42:19;;;;;;;;;;;;;;;;;;5154210;27;1567;-41
2022/12/07 03:44:47;;;;;;;;;;;;;;;;;;5154198;27;2063;-40
2022/12/07 03:47:21;;;;;;;;;;;;;;;;;;5154399;27;1895;-40
2022/12/07 03:50:07;;;;;;;;;;;;;;;;;;5154288;27;1549;-41
2022/12/07 03:52:40;;;;;;;;;;;;;;;;;;5154347;27;1738;-40
2022/12/07 03:55:19;;;;;;;;;;;;;;;;;;5154012;27;1894;-40
2022/12/07 03:57:48;;;;;;;;;;;;;;;;;;5135458;27;1780;-39
2022/12/07 04:00:15;;;;;;;;;;;;;;;;;;5153991;27;1993;-40
2022/12/07 04:02:43;;;;;;;;;;;;;;;;;;5154058;27;1716;-41
2022/12/07 04:05:10;;;;;;;;;;;;;;;;;;5154020;27;2117;-40
2022/12/07 04:07:38;;;;;;;;;;;;;;;;;;5153815;27;1916;-40
2022/12/07 04:10:05;;;;;;;;;;;;;;;;;;5153714;27;1958;-39
2022/12/07 04:12:32;;;;;;;;;;;;;;;;;;5153781;27;1670;-40
2022/12/07 04:14:59;;;;;;;;;;;;;;;;;;5153727;27;2110;-41
2022/12/07 04:17:26;;;;;;;;;;;;;;;;;;5153866;27;1676;-40
2022/12/07 04:19:53;;;;;;;;;;;;;;;;;;5157465;27;2029;-41
2022/12/07 04:22:21;;;;;;;;;;;;;;;;;;5174476;27;1749;-40
2022/12/07 04:24:48;;;;;;;;;;;;;;;;;;5174331;27;1822;-40
2022/12/07 04:27:15;;;;;;;;;;;;;;;;;;5154908;27;2035;-40
2022/12/07 04:29:42;;;;;;;;;;;;;;;;;;5153803;27;1795;-40
2022/12/07 04:32:09;;;;;;;;;;;;;;;;;;5134719;27;1943;-41
2022/12/07 04:34:36;;;;;;;;;;;;;;;;;;5153203;27;1972;-41
2022/12/07 04:37:03;;;;;;;;;;;;;;;;;;5153473;27;1441;-40
2022/12/07 04:39:31;;;;;;;;;;;;;;;;;;5153223;27;1782;-41
2022/12/07 04:41:59;;;;;;;;;;;;;;;;;;5153342;27;2008;-40
2022/12/07 04:44:27;;;;;;;;;;;;;;;;;;5153096;27;1952;-42
2022/12/07 04:46:56;;;;;;;;;;;;;;;;;;5134692;27;1849;-41
2022/12/07 04:49:25;;;;;;;;;;;;;;;;;;5153031;27;1712;-41
2022/12/07 04:51:56;;;;;;;;;;;;;;;;;;5152991;27;2183;-41
2022/12/07 04:54:24;;;;;;;;;;;;;;;;;;5153059;27;1977;-41
2022/12/07 04:56:52;;;;;;;;;;;;;;;;;;5153131;27;1993;-40
2022/12/07 04:59:19;;;;;;;;;;;;;;;;;;5153049;27;2107;-41
2022/12/07 05:01:47;;;;;;;;;;;;;;;;;;5152889;27;2066;-41
2022/12/07 05:04:15;;;;;;;;;;;;;;;;;;5153123;27;1938;-42
2022/12/07 05:06:42;;;;;;;;;;;;;;;;;;5153044;27;1223;-40
2022/12/07 05:09:10;;;;;;;;;;;;;;;;;;5152716;27;1946;-40
2022/12/07 05:11:38;;;;;;;;;;;;;;;;;;5152866;27;1713;-41
2022/12/07 05:14:11;;;;;;;;;;;;;;;;;;5169521;27;2040;-41
2022/12/07 05:16:39;;;;;;;;;;;;;;;;;;5173714;27;1637;-40
2022/12/07 05:19:06;;;;;;;;;;;;;;;;;;5173709;27;1961;-42
2022/12/07 05:21:33;;;;;;;;;;;;;;;;;;5155152;27;2151;-42
2022/12/07 05:24:00;;;;;;;;;;;;;;;;;;5173683;27;1396;-40
2022/12/07 05:26:27;;;;;;;;;;;;;;;;;;5155182;27;2007;-42
2022/12/07 05:28:55;;;;;;;;;;;;;;;;;;5173568;27;1743;-42
2022/12/07 05:31:23;;;;;;;;;;;;;;;;;;5173546;27;1762;-41
2022/12/07 05:33:50;;;;;;;;;;;;;;;;;;5173459;27;1911;-43
2022/12/07 05:36:17;;;;;;;;;;;;;;;;;;5173593;27;1574;-44
2022/12/07 05:38:45;;;;;;;;;;;;;;;;;;5173657;27;2092;-41
2022/12/07 05:44:02;;;;;;;;;;;;;;;;;;5173317;27;1776;-45
2022/12/07 05:46:30;;;;;;;;;;;;;;;;;;5173403;27;1961;-43
2022/12/07 05:48:58;;;;;;;;;;;;;;;;;;5173485;27;1953;-41
2022/12/07 05:51:25;;;;;;;;;;;;;;;;;;5173144;27;1453;-40
2022/12/07 05:53:52;;;;;;;;;;;;;;;;;;5173241;27;1969;-40
2022/12/07 05:56:19;;;;;;;;;;;;;;;;;;5173414;27;2158;-40
2022/12/07 06:01:33;;;;;;;;;;;;;;;;;;5173137;27;2042;-42
2022/12/07 06:04:00;;;;;;;;;;;;;;;;;;5173281;27;1918;-41
2022/12/07 06:06:27;;;;;;;;;;;;;;;;;;5176532;27;2070;-43
2022/12/07 06:08:54;;;;;;;;;;;;;;;;;;5177276;27;2087;-42
2022/12/07 06:14:07;;;;;;;;;;;;;;;;;;5177011;27;1996;-41
2022/12/07 06:16:34;;;;;;;;;;;;;;;;;;5176913;27;1667;-41
2022/12/07 06:19:01;;;;;;;;;;;;;;;;;;5176817;27;1925;-40
2022/12/07 06:21:28;;;;;;;;;;;;;;;;;;5159337;27;2339;-44
2022/12/07 06:23:56;;;;;;;;;;;;;;;;;;5155887;27;1971;-39
2022/12/07 06:26:24;;;;;;;;;;;;;;;;;;5155885;27;1693;-41
2022/12/07 06:28:51;;;;;;;;;;;;;;;;;;5156159;27;2070;-41
2022/12/07 06:31:18;;;;;;;;;;;;;;;;;;5154824;27;1623;-40
2022/12/07 06:33:45;;;;;;;;;;;;;;;;;;5155007;27;1474;-41
2022/12/07 06:36:12;;;;;;;;;;;;;;;;;;5155430;27;2504;-42
2022/12/07 06:38:39;;;;;;;;;;;;;;;;;;5155699;27;1395;-41
2022/12/07 06:41:07;;;;;;;;;;;;;;;;;;5155696;27;2035;-41
2022/12/07 06:43:34;;;;;;;;;;;;;;;;;;5155595;27;1940;-43
2022/12/07 06:46:01;;;;;;;;;;;;;;;;;;5155593;27;1536;-43
2022/12/07 06:48:28;;;;;;;;;;;;;;;;;;5155316;27;2505;-45
2022/12/07 06:50:55;;;;;;;;;;;;;;;;;;5155581;27;1630;-41
2022/12/07 06:53:22;;;;;;;;;;;;;;;;;;5155667;27;1808;-40
2022/12/07 06:55:49;;;;;;;;;;;;;;;;;;5155355;27;2128;-43
2022/12/07 06:58:16;;;;;;;;;;;;;;;;;;5155229;27;1814;-41
2022/12/07 07:00:44;;;;;;;;;;;;;;;;;;5155083;27;2227;-42
2022/12/07 07:03:11;;;;;;;;;;;;;;;;;;5155433;27;2188;-43
2022/12/07 07:05:38;;;;;;;;;;;;;;;;;;5155078;27;1284;-41
2022/12/07 07:08:06;;;;;;;;;;;;;;;;;;5155217;27;1763;-41
2022/12/07 07:10:50;;;;;;;;;;;;;;;;;;5155173;27;1552;-43
2022/12/07 07:13:17;;;;;;;;;;;;;;;;;;5154979;27;2174;-40
2022/12/07 07:15:44;;;;;;;;;;;;;;;;;;5163656;27;1975;-40
2022/12/07 07:18:11;;;;;;;;;;;;;;;;;;5175850;27;2002;-41
2022/12/07 07:20:39;;;;;;;;;;;;;;;;;;5175801;27;1728;-40
2022/12/07 07:23:08;;;;;;;;;;;;;;;;;;5175826;27;1962;-43
2022/12/07 07:25:35;;;;;;;;;;;;;;;;;;5175535;27;2065;-42
2022/12/07 07:28:02;;;;;;;;;;;;;;;;;;5175691;27;1809;-43
2022/12/07 07:30:29;;;;;;;;;;;;;;;;;;5175404;27;2021;-40
2022/12/07 07:33:00;;;;;;;;;;;;;;;;;;5175536;27;1569;-40
2022/12/07 07:35:28;;;;;;;;;;;;;;;;;;5175500;27;1889;-39
2022/12/07 07:37:55;;;;;;;;;;;;;;;;;;5175699;27;2177;-40
2022/12/07 07:40:22;;;;;;;;;;;;;;;;;;5175392;27;1689;-39
2022/12/07 07:42:50;;;;;;;;;;;;;;;;;;5175224;27;2030;-41
2022/12/07 07:45:18;;;;;;;;;;;;;;;;;;5175275;27;2033;-44
2022/12/07 07:47:45;;;;;;;;;;;;;;;;;;5175267;27;1561;-40
2022/12/07 07:50:13;;;;;;;;;;;;;;;;;;5175054;27;1988;-41
2022/12/07 07:52:40;;;;;;;;;;;;;;;;;;5175128;27;1661;-44
2022/12/07 07:55:10;;;;;;;;;;;;;;;;;;5174955;27;2271;-41
2022/12/07 07:57:38;;;;;;;;;;;;;;;;;;5175119;27;2161;-40
2022/12/07 08:00:10;;;;;;;;;;;;;;;;;;5175082;27;1614;-40
2022/12/07 08:02:39;;;;;;;;;;;;;;;;;;5174890;27;2175;-40
2022/12/07 08:05:07;;;;;;;;;;;;;;;;;;5174629;27;2082;-40
2022/12/07 08:07:34;;;;;;;;;;;;;;;;;;5174859;27;2061;-41
2022/12/07 08:10:01;;;;;;;;;;;;;;;;;;5174774;27;1969;-41
2022/12/07 08:12:29;;;;;;;;;;;;;;;;;;5174821;27;1648;-40
2022/12/07 08:14:56;;;;;;;;;;;;;;;;;;5174815;27;2018;-40
2022/12/07 08:17:23;;;;;;;;;;;;;;;;;;5174510;27;1772;-40
2022/12/07 08:19:50;;;;;;;;;;;;;;;;;;5152277;27;1799;-40
2022/12/07 08:22:17;;;;;;;;;;;;;;;;;;5153946;27;2237;-39
2022/12/07 08:24:44;;;;;;;;;;;;;;;;;;5153749;27;1976;-40
2022/12/07 08:27:11;;;;;;;;;;;;;;;;;;5152479;27;1750;-40
2022/12/07 08:29:38;;;;;;;;;;;;;;;;;;5153529;27;1965;-43
2022/12/07 08:32:05;;;;;;;;;;;;;;;;;;5164693;27;1841;-41
2022/12/07 08:34:35;;;;;;;;;;;;;;;;;;5174163;27;2307;-40
2022/12/07 08:37:02;;;;;;;;;;;;;;;;;;5174371;27;1949;-40
2022/12/07 08:39:29;;;;;;;;;;;;;;;;;;5174288;27;1853;-41
2022/12/07 08:41:58;;;;;;;;;;;;;;;;;;5174338;27;1842;-40
2022/12/07 08:44:25;;;;;;;;;;;;;;;;;;5174358;27;2307;-42
2022/12/07 08:47:04;;;;;;;;;;;;;;;;;;5174071;27;1832;-41
2022/12/07 08:49:33;;;;;;;;;;;;;;;;;;5174259;27;1371;-40
2022/12/07 08:52:00;;;;;;;;;;;;;;;;;;5174222;27;1915;-40
2022/12/07 08:54:28;;;;;;;;;;;;;;;;;;5174360;27;1844;-40
2022/12/07 08:56:55;;;;;;;;;;;;;;;;;;5173858;27;2300;-40
2022/12/07 08:59:26;;;;;;;;;;;;;;;;;;5173885;27;2108;-41
2022/12/07 09:01:53;;;;;;;;;;;;;;;;;;5173933;27;1879;-41
2022/12/07 09:04:20;;;;;;;;;;;;;;;;;;5173626;27;1988;-43
2022/12/07 09:06:47;;;;;;;;;;;;;;;;;;5173960;27;1855;-40
2022/12/07 09:09:15;;;;;;;;;;;;;;;;;;5173636;27;1883;-41
2022/12/07 09:11:44;;;;;;;;;;;;;;;;;;5173918;27;1891;-39
2022/12/07 09:14:14;;;;;;;;;;;;;;;;;;5173710;27;1605;-40
2022/12/07 09:16:41;;;;;;;;;;;;;;;;;;5173543;27;1918;-39
2022/12/07 09:19:08;;;;;;;;;;;;;;;;;;5173713;27;1946;-40
2022/12/07 09:21:35;;;;;;;;;;;;;;;;;;5154935;27;1841;-40
2022/12/07 09:24:03;;;;;;;;;;;;;;;;;;5152943;27;1746;-40
2022/12/07 09:26:30;;;;;;;;;;;;;;;;;;5152632;27;1947;-40
2022/12/07 09:28:57;;;;;;;;;;;;;;;;;;5152625;27;1654;-43
2022/12/07 09:31:24;;;;;;;;;;;;;;;;;;5152787;27;1649;-40
2022/12/07 09:33:56;;;;;;;;;;;;;;;;;;5134069;27;1863;-40
2022/12/07 09:36:23;;;;;;;;;;;;;;;;;;5152541;27;1946;-44
2022/12/07 09:38:50;;;;;;;;;;;;;;;;;;5157413;27;2269;-43
2022/12/07 09:41:18;;;;;;;;;;;;;;;;;;5177645;27;1911;-40
2022/12/07 09:43:46;;;;;;;;;;;;;;;;;;5177705;27;1438;-43
2022/12/07 09:46:15;;;;;;;;;;;;;;;;;;5177510;27;2137;-40
2022/12/07 09:48:43;;;;;;;;;;;;;;;;;;5177838;27;1408;-42
2022/12/07 09:51:17;;;;;;;;;;;;;;;;;;5177554;27;1784;-40
2022/12/07 09:53:50;;;;;;;;;;;;;;;;;;5177614;27;2277;-42
2022/12/07 09:56:17;;;;;;;;;;;;;;;;;;5177449;27;2279;-42
2022/12/07 09:58:45;;;;;;;;;;;;;;;;;;5177476;27;1607;-40
2022/12/07 10:01:14;;;;;;;;;;;;;;;;;;5177506;27;1946;-40
2022/12/07 10:03:58;;;;;;;;;;;;;;;;;;5177710;27;1879;-43
2022/12/07 10:06:25;;;;;;;;;;;;;;;;;;5177038;27;1828;-42
2022/12/07 10:08:52;;;;;;;;;;;;;;;;;;5177250;27;2199;-41
2022/12/07 10:11:20;;;;;;;;;;;;;;;;;;5158434;27;2593;-41
2022/12/07 10:13:48;;;;;;;;;;;;;;;;;;5177311;27;2082;-39
2022/12/07 10:16:22;;;;;;;;;;;;;;;;;;5158196;27;2123;-43
2022/12/07 10:18:49;;;;;;;;;;;;;;;;;;5167565;27;1807;-41
2022/12/07 10:21:20;;;;;;;;;;;;;;;;;;5158378;27;1952;-43
2022/12/07 10:24:16;;;;;;;;;;;;;;;;;;5177073;27;1433;-41
2022/12/07 10:26:46;;;;;;;;;;;;;;;;;;5176927;27;1639;-41
2022/12/07 10:29:17;;;;;;;;;;;;;;;;;;5176870;27;2268;-41
2022/12/07 10:31:46;;;;;;;;;;;;;;;;;;5176728;27;1429;-39
2022/12/07 10:34:26;;;;;;;;;;;;;;;;;;5176672;27;1916;-41
2022/12/07 10:37:06;;;;;;;;;;;;;;;;;;5176576;27;1989;-44
2022/12/07 10:39:40;;;;;;;;;;;;;;;;;;5176592;27;1898;-44
2022/12/07 10:42:15;;;;;;;;;;;;;;;;;;5176672;27;1558;-41
2022/12/07 10:44:43;;;;;;;;;;;;;;;;;;5176351;27;2104;-45
2022/12/07 10:47:12;;;;;;;;;;;;;;;;;;5176512;27;1811;-41
2022/12/07 10:49:55;;;;;;;;;;;;;;;;;;5176035;27;2260;-42
2022/12/07 10:52:31;;;;;;;;;;;;;;;;;;5176201;27;1977;-41
2022/12/07 10:55:08;;;;;;;;;;;;;;;;;;5176353;27;2118;-41
2022/12/07 10:57:56;;;;;;;;;;;;;;;;;;5176400;27;1675;-42
2022/12/07 11:00:24;;;;;;;;;;;;;;;;;;5157634;27;1673;-41
2022/12/07 11:03:14;;;;;;;;;;;;;;;;;;5176233;27;1883;-40
2022/12/07 11:05:59;;;;;;;;;;;;;;;;;;5175994;27;2026;-43
2022/12/07 11:08:36;;;;;;;;;;;;;;;;;;5176092;27;1693;-40
2022/12/07 11:11:12;;;;;;;;;;;;;;;;;;5176021;27;1791;-41
2022/12/07 11:13:56;;;;;;;;;;;;;;;;;;5176228;27;1819;-44
2022/12/07 11:16:29;;;;;;;;;;;;;;;;;;5175834;27;2273;-41
2022/12/07 11:19:14;;;;;;;;;;;;;;;;;;5176383;27;2097;-42
2022/12/07 11:21:53;;;;;;;;;;;;;;;;;;5156347;27;2171;-49
2022/12/07 11:24:26;;;;;;;;;;;;;;;;;;5154857;27;1469;-42
2022/12/07 11:27:12;;;;;;;;;;;;;;;;;;5154734;27;1955;-41
2022/12/07 11:29:57;;;;;;;;;;;;;;;;;;5154969;27;2085;-40
2022/12/07 11:33:03;;;;;;;;;;;;;;;;;;5154770;27;1673;-41
2022/12/07 11:35:38;;;;;;;;;;;;;;;;;;5050400;28;1902;-42
2022/12/07 11:38:19;;;;;;;;;;;;;;;;;;5050613;28;2205;-42
2022/12/07 11:40:53;;;;;;;;;;;;;;;;;;5119096;27;1437;-41
2022/12/07 11:43:23;;;;;;;;;;;;;;;;;;5154544;27;1897;-40
2022/12/07 11:46:00;;;;;;;;;;;;;;;;;;5154287;27;2089;-40
2022/12/07 11:48:30;;;;;;;;;;;;;;;;;;5154229;27;2008;-40
2022/12/07 11:50:59;;;;;;;;;;;;;;;;;;5154426;27;2261;-39
2022/12/07 11:53:29;;;;;;;;;;;;;;;;;;5154175;27;1852;-42
2022/12/07 11:55:59;;;;;;;;;;;;;;;;;;5154272;27;1997;-42
2022/12/07 11:58:41;;;;;;;;;;;;;;;;;;5154201;27;2043;-39
2022/12/07 12:01:13;;;;;;;;;;;;;;;;;;5154344;27;1644;-40
2022/12/07 12:03:44;;;;;;;;;;;;;;;;;;5154379;27;1862;-40
2022/12/07 12:06:16;;;;;;;;;;;;;;;;;;5153931;27;1820;-42
2022/12/07 12:09:07;;;;;;;;;;;;;;;;;;5154048;27;1675;-41
2022/12/07 12:12:00;;;;;;;;;;;;;;;;;;5153961;27;1640;-41
2022/12/07 12:14:59;;;;;;;;;;;;;;;;;;5153700;27;1754;-44
2022/12/07 12:17:45;;;;;;;;;;;;;;;;;;5153694;27;1946;-41
2022/12/07 12:20:18;;;;;;;;;;;;;;;;;;5153819;27;1727;-43
2022/12/07 12:22:52;;;;;;;;;;;;;;;;;;5153488;27;1737;-43
2022/12/07 12:25:21;;;;;;;;;;;;;;;;;;5153643;27;1700;-42
2022/12/07 12:27:49;;;;;;;;;;;;;;;;;;5153531;27;1495;-42
2022/12/07 12:30:38;;;;;;;;;;;;;;;;;;5153602;27;1946;-44
2022/12/07 12:33:31;;;;;;;;;;;;;;;;;;5153658;27;1921;-41
2022/12/07 12:36:16;;;;;;;;;;;;;;;;;;5148977;27;2142;-41
2022/12/07 12:38:50;;;;;;;;;;;;;;;;;;5135348;27;2206;-40
2022/12/07 12:41:36;;;;;;;;;;;;;;;;;;5153468;27;1866;-41
2022/12/07 12:44:18;;;;;;;;;;;;;;;;;;5153381;27;2072;-43
2022/12/07 12:46:46;;;;;;;;;;;;;;;;;;5153455;27;1809;-40
2022/12/07 12:49:15;;;;;;;;;;;;;;;;;;5153429;27;2060;-41
2022/12/07 12:51:43;;;;;;;;;;;;;;;;;;5153487;27;2159;-41
2022/12/07 12:54:13;;;;;;;;;;;;;;;;;;5153028;27;2001;-41
2022/12/07 12:56:43;;;;;;;;;;;;;;;;;;5153174;27;1910;-40
2022/12/07 12:59:30;;;;;;;;;;;;;;;;;;5153065;27;1986;-40
2022/12/07 13:02:19;;;;;;;;;;;;;;;;;;5153006;27;1677;-40
2022/12/07 13:05:05;;;;;;;;;;;;;;;;;;5153192;27;1949;-40
2022/12/07 13:07:51;;;;;;;;;;;;;;;;;;5153020;27;1903;-41
2022/12/07 13:10:30;;;;;;;;;;;;;;;;;;5152608;27;1483;-41
2022/12/07 13:13:14;;;;;;;;;;;;;;;;;;5152469;27;1706;-41
2022/12/07 13:15:55;;;;;;;;;;;;;;;;;;5152729;27;1802;-40
2022/12/07 13:18:28;;;;;;;;;;;;;;;;;;5152602;27;1692;-41
2022/12/07 13:20:56;;;;;;;;;;;;;;;;;;5165586;27;1968;-41
2022/12/07 13:23:38;;;;;;;;;;;;;;;;;;5173368;27;1660;-41
2022/12/07 13:26:05;;;;;;;;;;;;;;;;;;5173347;27;1621;-40
2022/12/07 13:28:38;;;;;;;;;;;;;;;;;;5173501;27;1937;-41
2022/12/07 13:31:13;;;;;;;;;;;;;;;;;;5173539;27;1995;-39
2022/12/07 13:33:42;;;;;;;;;;;;;;;;;;5173540;27;2039;-40
2022/12/07 13:36:17;;;;;;;;;;;;;;;;;;5173478;27;1942;-39
2022/12/07 13:38:54;;;;;;;;;;;;;;;;;;5173331;27;1662;-40
2022/12/07 13:41:23;;;;;;;;;;;;;;;;;;5173374;27;1552;-43
2022/12/07 13:43:52;;;;;;;;;;;;;;;;;;5173443;27;2164;-40
2022/12/07 13:46:25;;;;;;;;;;;;;;;;;;5173638;27;1734;-41
2022/12/07 13:48:53;;;;;;;;;;;;;;;;;;5173533;27;1449;-40
2022/12/07 13:51:22;;;;;;;;;;;;;;;;;;5173348;27;1845;-39
2022/12/07 13:53:52;;;;;;;;;;;;;;;;;;5173570;27;1470;-39
2022/12/07 13:56:20;;;;;;;;;;;;;;;;;;5172545;27;2335;-41
2022/12/07 13:58:47;;;;;;;;;;;;;;;;;;5173490;27;1767;-40
2022/12/07 14:01:14;;;;;;;;;;;;;;;;;;5173250;27;1493;-40
2022/12/07 14:03:45;;;;;;;;;;;;;;;;;;5172844;27;2053;-40
2022/12/07 14:06:16;;;;;;;;;;;;;;;;;;5173133;27;1789;-39
2022/12/07 14:08:43;;;;;;;;;;;;;;;;;;5173180;27;1637;-40
2022/12/07 14:11:14;;;;;;;;;;;;;;;;;;5173150;27;1617;-40
2022/12/07 14:13:47;;;;;;;;;;;;;;;;;;5172931;27;1763;-41
2022/12/07 14:16:20;;;;;;;;;;;;;;;;;;5172884;27;1905;-40
2022/12/07 14:18:47;;;;;;;;;;;;;;;;;;5173398;27;1497;-41
2022/12/07 14:21:16;;;;;;;;;;;;;;;;;;5173086;27;1724;-41
2022/12/07 14:23:43;;;;;;;;;;;;;;;;;;5173008;27;1563;-40
2022/12/07 14:26:20;;;;;;;;;;;;;;;;;;5174628;27;2457;-39
2022/12/07 14:28:47;;;;;;;;;;;;;;;;;;5176813;27;1913;-40
2022/12/07 14:31:19;;;;;;;;;;;;;;;;;;5176891;27;2031;-39
2022/12/07 14:33:58;;;;;;;;;;;;;;;;;;5176702;27;1972;-40
2022/12/07 14:36:25;;;;;;;;;;;;;;;;;;5176643;27;1911;-39
2022/12/07 14:38:55;;;;;;;;;;;;;;;;;;5176709;27;2049;-40
2022/12/07 14:44:12;;;;;;;;;;;;;;;;;;5176688;27;2218;-40
2022/12/07 14:46:59;;;;;;;;;;;;;;;;;;5176530;27;2342;-39
2022/12/07 14:49:47;;;;;;;;;;;;;;;;;;5176360;27;1653;-40
2022/12/07 14:52:21;;;;;;;;;;;;;;;;;;5176404;27;1811;-39
2022/12/07 14:55:13;;;;;;;;;;;;;;;;;;5176184;27;1536;-40
2022/12/07 14:57:40;;;;;;;;;;;;;;;;;;5175958;27;1969;-39
2022/12/07 15:00:08;;;;;;;;;;;;;;;;;;5176416;27;2328;-39
2022/12/07 15:02:35;;;;;;;;;;;;;;;;;;5176123;27;1945;-40
2022/12/07 15:05:02;;;;;;;;;;;;;;;;;;5175916;27;1710;-40
2022/12/07 15:07:30;;;;;;;;;;;;;;;;;;5175977;27;2273;-40
2022/12/07 15:09:58;;;;;;;;;;;;;;;;;;5175701;27;1594;-40
2022/12/07 15:12:25;;;;;;;;;;;;;;;;;;5175843;27;1987;-40
2022/12/07 15:14:55;;;;;;;;;;;;;;;;;;5175830;27;2002;-39
2022/12/07 15:17:22;;;;;;;;;;;;;;;;;;5175883;27;1976;-39
2022/12/07 15:19:57;;;;;;;;;;;;;;;;;;5175767;27;2301;-39
2022/12/07 15:22:26;;;;;;;;;;;;;;;;;;5176101;27;1962;-40
2022/12/07 15:24:53;;;;;;;;;;;;;;;;;;5175652;27;1926;-40
2022/12/07 15:27:21;;;;;;;;;;;;;;;;;;5175914;27;1815;-39
2022/12/07 15:29:48;;;;;;;;;;;;;;;;;;5175538;27;1705;-40
2022/12/07 15:32:15;;;;;;;;;;;;;;;;;;5175598;27;1826;-40
2022/12/07 15:34:42;;;;;;;;;;;;;;;;;;5175387;27;1662;-40
2022/12/07 15:37:09;;;;;;;;;;;;;;;;;;5156442;27;2013;-41
2022/12/07 15:39:37;;;;;;;;;;;;;;;;;;5175443;27;2044;-43
2022/12/07 15:42:04;;;;;;;;;;;;;;;;;;5175280;27;1937;-39
2022/12/07 15:47:20;;;;;;;;;;;;;;;;;;5175185;27;2040;-40
2022/12/07 15:49:47;;;;;;;;;;;;;;;;;;5175247;27;1667;-40
2022/12/07 15:52:15;;;;;;;;;;;;;;;;;;5175167;27;1743;-41
2022/12/07 15:54:42;;;;;;;;;;;;;;;;;;5175024;27;2114;-41
2022/12/07 15:57:09;;;;;;;;;;;;;;;;;;5175147;27;1986;-40
2022/12/07 15:59:36;;;;;;;;;;;;;;;;;;5174948;27;2011;-40
2022/12/07 16:02:04;;;;;;;;;;;;;;;;;;5175047;27;1452;-41
2022/12/07 16:04:31;;;;;;;;;;;;;;;;;;5174638;27;1883;-40
2022/12/07 16:07:01;;;;;;;;;;;;;;;;;;5174879;27;1678;-41
2022/12/07 16:09:28;;;;;;;;;;;;;;;;;;5175124;27;1709;-39
2022/12/07 16:11:55;;;;;;;;;;;;;;;;;;5156087;27;2189;-40
2022/12/07 16:14:22;;;;;;;;;;;;;;;;;;5174740;27;1677;-40
2022/12/07 16:16:49;;;;;;;;;;;;;;;;;;5174235;27;2008;-39
2022/12/07 16:19:17;;;;;;;;;;;;;;;;;;5174766;27;1971;-40
2022/12/07 16:21:44;;;;;;;;;;;;;;;;;;5174620;27;1922;-41
2022/12/07 16:24:12;;;;;;;;;;;;;;;;;;5174429;27;2067;-41
2022/12/07 16:26:40;;;;;;;;;;;;;;;;;;5174649;27;1954;-41
2022/12/07 16:29:12;;;;;;;;;;;;;;;;;;5174386;27;1822;-41
2022/12/07 16:31:39;;;;;;;;;;;;;;;;;;5174487;27;1518;-40
2022/12/07 16:34:07;;;;;;;;;;;;;;;;;;5155663;27;2219;-40
2022/12/07 16:36:34;;;;;;;;;;;;;;;;;;5174389;27;1666;-41
2022/12/07 16:39:21;;;;;;;;;;;;;;;;;;5174218;27;1678;-40
2022/12/07 16:41:48;;;;;;;;;;;;;;;;;;5174223;27;1930;-40
2022/12/07 16:44:15;;;;;;;;;;;;;;;;;;5173933;27;1960;-40
2022/12/07 16:46:42;;;;;;;;;;;;;;;;;;5174194;27;2034;-41
2022/12/07 16:49:14;;;;;;;;;;;;;;;;;;5173569;27;1946;-40
2022/12/07 16:51:42;;;;;;;;;;;;;;;;;;5173869;27;2208;-38
2022/12/07 16:54:11;;;;;;;;;;;;;;;;;;5174009;27;1946;-40
2022/12/07 16:56:38;;;;;;;;;;;;;;;;;;5173792;27;1729;-40
2022/12/07 16:59:05;;;;;;;;;;;;;;;;;;5173715;27;1536;-41
2022/12/07 17:01:34;;;;;;;;;;;;;;;;;;5155613;27;1719;-39
2022/12/07 17:04:01;;;;;;;;;;;;;;;;;;5173816;27;1733;-40
2022/12/07 17:06:30;;;;;;;;;;;;;;;;;;5173937;27;1774;-41
2022/12/07 17:08:58;;;;;;;;;;;;;;;;;;5173757;27;2020;-40
2022/12/07 17:11:26;;;;;;;;;;;;;;;;;;5174001;27;1734;-41
2022/12/07 17:16:39;;;;;;;;;;;;;;;;;;5173746;27;1974;-40
2022/12/07 17:19:07;;;;;;;;;;;;;;;;;;5173493;27;1901;-39
2022/12/07 17:21:34;;;;;;;;;;;;;;;;;;5173271;27;1630;-42
2022/12/07 17:24:04;;;;;;;;;;;;;;;;;;5173810;27;1780;-40
2022/12/07 17:26:31;;;;;;;;;;;;;;;;;;5173840;27;1418;-40
2022/12/07 17:29:01;;;;;;;;;;;;;;;;;;5173818;27;1927;-42
2022/12/07 17:31:29;;;;;;;;;;;;;;;;;;5173722;27;2149;-41
2022/12/07 17:33:57;;;;;;;;;;;;;;;;;;5173405;27;2117;-40
2022/12/07 17:36:25;;;;;;;;;;;;;;;;;;5173537;27;2106;-39
2022/12/07 17:38:53;;;;;;;;;;;;;;;;;;5173291;27;2104;-40
2022/12/07 17:44:16;;;;;;;;;;;;;;;;;;5173280;27;1846;-40
2022/12/07 17:46:45;;;;;;;;;;;;;;;;;;5154982;27;1505;-40